Time;durP1;ratioP1;P1;durP2;ratioP2;P2;SDS_P1;SDS_P2;PMS_P1;PMS_P2;Temp;Humidity;BMP_temperature;BMP_pressure;BME280_temperature;BME280_humidity;BME280_pressure;Samples;Min_cycle;Max_cycle;Signal;HPM_P1;HPM_P2
2021/10/11 00:00:00;;;;;;;;;;;;;;;4.19;54.71;101576.94;4936329;28;97954;-57
2021/10/11 00:02:26;;;;;;;;;;;;;;;4.17;54.85;101572.84;4921475;28;98426;-57
2021/10/11 00:04:52;;;;;;;;;;;;;;;4.16;54.42;101573.84;4921868;28;98413;-57
2021/10/11 00:07:18;;;;;;;;;;;;;;;4.11;54.77;101574.44;4920461;28;125690;-56
2021/10/11 00:09:44;;;;;;;;;;;;;;;4.08;54.42;101574.00;4922404;28;98095;-55
2021/10/11 00:12:10;;;;;;;;;;;;;;;4.04;54.53;101573.59;4921217;28;99469;-56
2021/10/11 00:14:36;;;;;;;;;;;;;;;4.02;54.60;101566.81;4903434;28;97913;-57
2021/10/11 00:17:02;;;;;;;;;;;;;;;4.01;54.74;101562.47;4921655;28;111297;-57
2021/10/11 00:19:33;;;;;;;;;;;;;;;3.98;54.78;101555.72;4922098;28;98134;-57
2021/10/11 00:21:59;;;;;;;;;;;;;;;3.94;54.95;101557.13;4921014;28;98382;-57
2021/10/11 00:24:25;;;;;;;;;;;;;;;3.91;54.64;101546.84;4921130;28;128089;-55
2021/10/11 00:26:51;;;;;;;;;;;;;;;3.91;55.00;101545.00;4921000;28;127038;-56
2021/10/11 00:29:17;;;;;;;;;;;;;;;3.88;54.93;101553.38;4921100;28;116330;-59
2021/10/11 00:31:43;;;;;;;;;;;;;;;3.88;54.96;101557.91;4920435;28;128388;-58
2021/10/11 00:34:09;;;;;;;;;;;;;;;3.84;55.19;101552.13;4920651;28;128116;-58
2021/10/11 00:36:35;;;;;;;;;;;;;;;3.82;55.27;101558.69;4921047;28;117724;-59
2021/10/11 00:39:01;;;;;;;;;;;;;;;3.83;54.91;101555.00;4921110;28;114474;-56
2021/10/11 00:41:31;;;;;;;;;;;;;;;3.81;55.12;101551.69;4921071;28;127999;-57
2021/10/11 00:43:58;;;;;;;;;;;;;;;3.79;55.17;101554.56;4922011;28;98251;-59
2021/10/11 00:46:23;;;;;;;;;;;;;;;3.78;54.87;101549.44;4918448;28;114699;-59
2021/10/11 00:48:49;;;;;;;;;;;;;;;3.77;54.80;101545.94;4920132;28;116379;-59
2021/10/11 00:51:15;;;;;;;;;;;;;;;3.74;55.12;101535.66;4920186;28;129324;-59
2021/10/11 00:53:41;;;;;;;;;;;;;;;3.71;54.87;101540.56;4920064;28;127202;-59
2021/10/11 00:56:07;;;;;;;;;;;;;;;3.68;55.07;101541.78;4921348;28;105207;-58
2021/10/11 00:58:33;;;;;;;;;;;;;;;3.68;55.33;101539.09;4920831;28;117321;-57
2021/10/11 01:00:59;;;;;;;;;;;;;;;3.67;54.96;101532.97;4920121;28;127290;-58
2021/10/11 01:03:25;;;;;;;;;;;;;;;3.66;54.90;101538.50;4919787;28;129001;-57
2021/10/11 01:05:51;;;;;;;;;;;;;;;3.63;54.74;101534.38;4902860;28;98370;-59
2021/10/11 01:08:17;;;;;;;;;;;;;;;3.60;55.04;101526.75;4921307;28;116697;-59
2021/10/11 01:10:49;;;;;;;;;;;;;;;3.56;54.98;101516.69;4920587;28;127851;-57
2021/10/11 01:13:15;;;;;;;;;;;;;;;3.52;54.89;101521.56;4921034;28;102273;-57
2021/10/11 01:15:41;;;;;;;;;;;;;;;3.47;54.67;101515.19;4921307;28;98312;-59
2021/10/11 01:18:07;;;;;;;;;;;;;;;3.40;55.05;101515.97;4921468;28;97847;-57
2021/10/11 01:20:33;;;;;;;;;;;;;;;3.35;55.15;101515.72;4921233;28;98630;-59
2021/10/11 01:22:59;;;;;;;;;;;;;;;3.31;55.10;101510.97;4919165;28;107975;-59
2021/10/11 01:25:25;;;;;;;;;;;;;;;3.26;55.07;101513.38;4919552;28;128573;-59
2021/10/11 01:27:51;;;;;;;;;;;;;;;3.23;55.25;101513.78;4920705;28;97820;-56
2021/10/11 01:30:18;;;;;;;;;;;;;;;3.23;55.64;101516.44;4920777;28;109176;-59
2021/10/11 01:32:47;;;;;;;;;;;;;;;3.22;55.15;101523.59;4920430;28;98355;-59
2021/10/11 01:35:15;;;;;;;;;;;;;;;3.22;55.58;101520.13;4921522;28;97860;-59
2021/10/11 01:37:42;;;;;;;;;;;;;;;3.18;55.59;101525.84;4920606;28;97829;-58
2021/10/11 01:40:08;;;;;;;;;;;;;;;3.20;55.68;101517.66;4921338;28;98249;-59
2021/10/11 01:42:34;;;;;;;;;;;;;;;3.21;55.59;101516.63;4923622;28;98893;-57
2021/10/11 01:45:00;;;;;;;;;;;;;;;3.21;55.50;101516.63;4923275;28;127557;-59
2021/10/11 01:47:27;;;;;;;;;;;;;;;3.19;55.36;101508.84;4904315;28;117499;-58
2021/10/11 01:49:53;;;;;;;;;;;;;;;3.17;55.01;101510.84;4923761;28;99257;-59
2021/10/11 01:52:19;;;;;;;;;;;;;;;3.12;55.35;101510.63;4923785;28;98649;-59
2021/10/11 01:54:45;;;;;;;;;;;;;;;3.11;55.57;101508.16;4924202;28;98065;-57
2021/10/11 01:57:11;;;;;;;;;;;;;;;3.12;55.32;101499.16;4923586;28;97965;-58
2021/10/11 01:59:37;;;;;;;;;;;;;;;3.12;55.47;101491.97;4923754;28;97739;-59
2021/10/11 02:02:04;;;;;;;;;;;;;;;3.12;55.55;101493.81;4922419;28;128090;-58
2021/10/11 02:04:30;;;;;;;;;;;;;;;3.12;55.55;101491.16;4923361;28;98513;-60
2021/10/11 02:06:56;;;;;;;;;;;;;;;3.11;55.52;101486.84;4922705;28;97942;-60
2021/10/11 02:09:22;;;;;;;;;;;;;;;3.11;55.41;101492.19;4923701;28;110452;-57
2021/10/11 02:11:48;;;;;;;;;;;;;;;3.11;55.59;101487.66;4922717;28;114610;-58
2021/10/11 02:14:14;;;;;;;;;;;;;;;3.10;55.50;101482.50;4921856;28;127939;-59
2021/10/11 02:16:40;;;;;;;;;;;;;;;3.05;55.27;101480.44;4923286;28;117763;-58
2021/10/11 02:19:06;;;;;;;;;;;;;;;3.03;55.48;101481.66;4922484;28;127184;-58
2021/10/11 02:21:32;;;;;;;;;;;;;;;3.01;55.49;101483.69;4923383;28;126101;-58
2021/10/11 02:23:58;;;;;;;;;;;;;;;2.99;55.67;101478.56;4923052;28;117923;-57
2021/10/11 02:26:24;;;;;;;;;;;;;;;2.97;55.71;101475.25;4923348;28;108899;-59
2021/10/11 02:28:52;;;;;;;;;;;;;;;2.97;55.38;101477.09;4923078;28;98714;-59
2021/10/11 02:31:19;;;;;;;;;;;;;;;2.96;55.75;101470.94;4922675;28;117547;-59
2021/10/11 02:33:45;;;;;;;;;;;;;;;2.94;55.40;101472.97;4922274;28;116108;-58
2021/10/11 02:36:12;;;;;;;;;;;;;;;2.93;55.69;101468.66;4923326;28;97786;-59
2021/10/11 02:38:38;;;;;;;;;;;;;;;2.92;55.67;101467.84;4923157;28;98349;-59
2021/10/11 02:41:03;;;;;;;;;;;;;;;2.91;55.46;101468.88;4921937;28;128918;-59
2021/10/11 02:43:29;;;;;;;;;;;;;;;2.90;55.74;101463.72;4921974;28;126413;-59
2021/10/11 02:45:55;;;;;;;;;;;;;;;2.86;55.67;101468.59;4922366;28;116744;-58
2021/10/11 02:48:21;;;;;;;;;;;;;;;2.83;55.65;101466.34;4923299;28;98228;-59
2021/10/11 02:50:47;;;;;;;;;;;;;;;2.81;55.78;101456.88;4922616;28;98009;-59
2021/10/11 02:53:14;;;;;;;;;;;;;;;2.76;55.51;101452.13;4921832;28;127843;-58
2021/10/11 02:55:40;;;;;;;;;;;;;;;2.72;55.78;101448.22;4923748;28;98110;-59
2021/10/11 02:58:06;;;;;;;;;;;;;;;2.67;55.50;101443.47;4922610;28;98443;-59
2021/10/11 03:00:32;;;;;;;;;;;;;;;2.62;55.66;101440.53;4904932;28;113106;-59
2021/10/11 03:02:58;;;;;;;;;;;;;;;2.60;56.09;101439.91;4921226;28;126385;-58
2021/10/11 03:05:24;;;;;;;;;;;;;;;2.57;55.79;101434.16;4922036;28;118362;-59
2021/10/11 03:07:50;;;;;;;;;;;;;;;2.54;55.92;101429.19;4921741;28;127475;-59
2021/10/11 03:10:16;;;;;;;;;;;;;;;2.52;55.82;101425.91;4922511;28;98548;-58
2021/10/11 03:12:42;;;;;;;;;;;;;;;2.48;56.03;101414.81;4921492;28;126183;-58
2021/10/11 03:15:08;;;;;;;;;;;;;;;2.44;56.06;101416.22;4923781;28;98050;-58
2021/10/11 03:17:34;;;;;;;;;;;;;;;2.41;56.26;101414.75;4922612;28;116441;-58
2021/10/11 03:20:00;;;;;;;;;;;;;;;2.39;55.98;101411.44;4922375;28;98786;-59
2021/10/11 03:22:27;;;;;;;;;;;;;;;2.39;56.04;101413.28;4922016;28;124582;-59
2021/10/11 03:24:53;;;;;;;;;;;;;;;2.38;56.00;101409.81;4923959;28;97703;-58
2021/10/11 03:27:19;;;;;;;;;;;;;;;2.37;56.07;101402.84;4921747;28;100518;-59
2021/10/11 03:29:45;;;;;;;;;;;;;;;2.38;56.17;101401.00;4922475;28;98462;-59
2021/10/11 03:32:11;;;;;;;;;;;;;;;2.40;56.62;101393.66;4920670;28;126521;-57
2021/10/11 03:34:37;;;;;;;;;;;;;;;2.43;56.63;101385.28;4922604;28;114571;-58
2021/10/11 03:37:03;;;;;;;;;;;;;;;2.43;56.31;101380.78;4920779;28;128308;-57
2021/10/11 03:39:29;;;;;;;;;;;;;;;2.48;56.15;101382.88;4922320;28;98599;-59
2021/10/11 03:41:55;;;;;;;;;;;;;;;2.46;56.16;101375.06;4920547;28;127104;-60
2021/10/11 03:44:21;;;;;;;;;;;;;;;2.45;56.02;101378.75;4922201;28;117538;-58
2021/10/11 03:46:47;;;;;;;;;;;;;;;2.42;55.94;101373.00;4921647;28;127984;-59
2021/10/11 03:49:12;;;;;;;;;;;;;;;2.41;56.23;101376.69;4921727;28;109591;-57
2021/10/11 03:51:38;;;;;;;;;;;;;;;2.42;56.16;101376.47;4921328;28;127194;-60
2021/10/11 03:54:04;;;;;;;;;;;;;;;2.44;55.90;101385.09;4920934;28;117386;-59
2021/10/11 03:56:30;;;;;;;;;;;;;;;2.46;56.36;101382.22;4921683;28;103763;-59
2021/10/11 03:58:56;;;;;;;;;;;;;;;2.48;56.33;101374.91;4920873;28;128362;-59
2021/10/11 04:01:22;;;;;;;;;;;;;;;2.52;56.64;101370.84;4921386;28;126802;-57
2021/10/11 04:03:49;;;;;;;;;;;;;;;2.53;56.39;101366.31;4920483;28;98260;-58
2021/10/11 04:06:16;;;;;;;;;;;;;;;2.57;56.50;101367.59;4921462;28;98889;-57
2021/10/11 04:08:44;;;;;;;;;;;;;;;2.58;56.39;101370.03;4921771;28;99227;-58
2021/10/11 04:13:42;;;;;;;;;;;;;;;2.59;56.16;101357.56;4920979;28;98141;-59
2021/10/11 04:16:08;;;;;;;;;;;;;;;2.60;56.12;101360.03;4921496;28;122435;-59
2021/10/11 04:18:34;;;;;;;;;;;;;;;2.61;56.33;101358.19;4921057;28;128991;-59
2021/10/11 04:21:00;;;;;;;;;;;;;;;2.61;56.23;101353.69;4921265;28;119483;-58
2021/10/11 04:23:26;;;;;;;;;;;;;;;2.62;56.89;101355.34;4921574;28;105230;-58
2021/10/11 04:25:52;;;;;;;;;;;;;;;2.62;56.61;101355.34;4921020;28;98385;-60
2021/10/11 04:28:18;;;;;;;;;;;;;;;2.65;56.88;101368.28;4920957;28;98941;-59
2021/10/11 04:30:44;;;;;;;;;;;;;;;2.68;56.65;101370.56;4922123;28;97829;-59
2021/10/11 04:33:10;;;;;;;;;;;;;;;2.72;56.58;101378.16;4921605;28;98246;-58
2021/10/11 04:35:37;;;;;;;;;;;;;;;2.72;56.73;101378.97;4921054;28;127389;-59
2021/10/11 04:38:02;;;;;;;;;;;;;;;2.73;56.85;101377.13;4920653;28;109667;-59
2021/10/11 04:40:28;;;;;;;;;;;;;;;2.76;56.91;101377.56;4921443;28;128383;-59
2021/10/11 04:42:54;;;;;;;;;;;;;;;2.76;56.74;101374.09;4919109;28;102737;-59
2021/10/11 04:45:27;;;;;;;;;;;;;;;2.78;56.50;101372.84;4920718;28;128177;-59
2021/10/11 04:48:00;;;;;;;;;;;;;;;2.78;56.67;101364.88;4920708;28;99259;-59
2021/10/11 04:50:27;;;;;;;;;;;;;;;2.77;56.57;101373.88;4922615;28;110337;-59
2021/10/11 04:52:53;;;;;;;;;;;;;;;2.79;56.85;101373.69;4934743;28;98088;-58
2021/10/11 04:55:19;;;;;;;;;;;;;;;2.78;56.69;101375.53;4921226;28;98659;-59
2021/10/11 04:57:45;;;;;;;;;;;;;;;2.81;57.01;101374.31;4918960;28;117758;-60
2021/10/11 05:00:12;;;;;;;;;;;;;;;2.81;56.86;101375.16;4919359;28;127004;-57
2021/10/11 05:02:39;;;;;;;;;;;;;;;2.83;56.97;101378.44;4920744;28;97889;-57
2021/10/11 05:05:05;;;;;;;;;;;;;;;2.85;56.89;101367.59;4919999;28;99514;-59
2021/10/11 05:07:31;;;;;;;;;;;;;;;2.87;57.04;101369.06;4918573;28;118367;-59
2021/10/11 05:09:57;;;;;;;;;;;;;;;2.88;57.00;101362.69;4919667;28;126651;-59
2021/10/11 05:12:23;;;;;;;;;;;;;;;2.90;56.83;101363.31;4917795;28;116064;-57
2021/10/11 05:14:49;;;;;;;;;;;;;;;2.90;56.87;101357.97;4918927;28;128357;-57
2021/10/11 05:17:15;;;;;;;;;;;;;;;2.91;56.83;101364.16;4920466;28;109515;-59
2021/10/11 05:19:41;;;;;;;;;;;;;;;2.91;57.00;101372.16;4922102;28;97848;-59
2021/10/11 05:22:06;;;;;;;;;;;;;;;2.93;57.02;101378.91;4919550;28;118238;-59
2021/10/11 05:24:32;;;;;;;;;;;;;;;2.97;57.06;101378.53;4920746;28;112099;-57
2021/10/11 05:26:58;;;;;;;;;;;;;;;2.99;57.36;101376.47;4920541;28;98491;-58
2021/10/11 05:29:24;;;;;;;;;;;;;;;3.03;57.32;101383.09;4920858;28;98315;-59
2021/10/11 05:31:50;;;;;;;;;;;;;;;3.06;57.30;101377.34;4921259;28;98048;-57
2021/10/11 05:34:16;;;;;;;;;;;;;;;3.11;56.97;101377.59;4920109;28;123088;-58
2021/10/11 05:36:42;;;;;;;;;;;;;;;3.12;57.06;101371.25;4920694;28;118214;-58
2021/10/11 05:39:08;;;;;;;;;;;;;;;3.13;57.02;101379.03;4920676;28;97792;-57
2021/10/11 05:41:34;;;;;;;;;;;;;;;3.17;57.05;101377.63;4919767;28;117669;-59
2021/10/11 05:44:00;;;;;;;;;;;;;;;3.20;56.96;101377.25;4920289;28;110306;-58
2021/10/11 05:46:26;;;;;;;;;;;;;;;3.25;56.99;101381.16;4920510;28;126837;-60
2021/10/11 05:48:52;;;;;;;;;;;;;;;3.28;57.21;101375.44;4920052;28;113653;-58
2021/10/11 05:51:18;;;;;;;;;;;;;;;3.33;56.83;101368.47;4920842;28;107332;-57
2021/10/11 05:53:44;;;;;;;;;;;;;;;3.38;57.12;101368.72;4922358;28;98262;-59
2021/10/11 05:56:10;;;;;;;;;;;;;;;3.43;56.79;101368.13;4924075;28;98389;-61
2021/10/11 05:58:36;;;;;;;;;;;;;;;3.49;57.21;101370.00;4921456;28;126844;-58
2021/10/11 06:01:02;;;;;;;;;;;;;;;3.55;57.28;101374.53;4938828;28;98089;-59
2021/10/11 06:03:28;;;;;;;;;;;;;;;3.60;57.26;101369.44;4921457;28;101361;-57
2021/10/11 06:05:53;;;;;;;;;;;;;;;3.65;57.01;101371.50;4922813;28;126264;-59
2021/10/11 06:08:20;;;;;;;;;;;;;;;3.71;57.44;101370.69;4922819;28;100312;-59
2021/10/11 06:10:46;;;;;;;;;;;;;;;3.76;57.27;101370.09;4923382;28;107773;-57
2021/10/11 06:13:12;;;;;;;;;;;;;;;3.80;57.05;101366.81;4923027;28;98764;-58
2021/10/11 06:15:38;;;;;;;;;;;;;;;3.87;57.30;101366.84;4922830;28;127855;-57
2021/10/11 06:18:04;;;;;;;;;;;;;;;3.93;57.36;101369.53;4922382;28;98267;-59
2021/10/11 06:20:30;;;;;;;;;;;;;;;3.98;56.77;101360.94;4924122;28;97985;-60
2021/10/11 06:22:56;;;;;;;;;;;;;;;4.01;56.61;101363.22;4922578;28;117618;-58
2021/10/11 06:25:22;;;;;;;;;;;;;;;4.05;56.76;101364.44;4922518;28;128657;-59
2021/10/11 06:27:48;;;;;;;;;;;;;;;4.08;57.18;101369.34;4922479;28;98023;-59
2021/10/11 06:30:14;;;;;;;;;;;;;;;4.12;56.97;101375.94;4922226;28;97962;-59
2021/10/11 06:32:40;;;;;;;;;;;;;;;4.17;57.10;101381.50;4919877;28;107698;-57
2021/10/11 06:35:06;;;;;;;;;;;;;;;4.27;56.73;101375.75;4920396;28;99368;-59
2021/10/11 06:37:32;;;;;;;;;;;;;;;4.35;56.96;101372.06;4922292;28;114707;-59
2021/10/11 06:39:58;;;;;;;;;;;;;;;4.45;56.55;101375.16;4923699;28;97919;-61
2021/10/11 06:42:24;;;;;;;;;;;;;;;4.53;56.67;101379.47;4921200;28;128695;-58
2021/10/11 06:44:50;;;;;;;;;;;;;;;4.57;56.67;101378.88;4921621;28;129063;-60
2021/10/11 06:47:16;;;;;;;;;;;;;;;4.59;56.84;101378.66;4922949;28;97974;-58
2021/10/11 06:49:42;;;;;;;;;;;;;;;4.62;57.00;101388.91;4923130;28;97745;-58
2021/10/11 06:52:08;;;;;;;;;;;;;;;4.68;56.72;101390.78;4922857;28;98202;-58
2021/10/11 06:54:34;;;;;;;;;;;;;;;4.74;56.63;101387.28;4922089;28;128070;-57
2021/10/11 06:57:00;;;;;;;;;;;;;;;4.85;56.98;101386.66;4922560;28;110338;-59
2021/10/11 06:59:26;;;;;;;;;;;;;;;4.98;56.96;101387.66;4921918;28;117205;-55
2021/10/11 07:01:52;;;;;;;;;;;;;;;5.11;56.76;101382.31;4922147;28;128116;-55
2021/10/11 07:04:18;;;;;;;;;;;;;;;5.20;56.89;101380.22;4923740;28;98296;-55
2021/10/11 07:06:44;;;;;;;;;;;;;;;5.30;56.25;101388.63;4903453;28;127548;-57
2021/10/11 07:09:10;;;;;;;;;;;;;;;5.38;56.28;101385.72;4922485;28;97913;-55
2021/10/11 07:11:36;;;;;;;;;;;;;;;5.45;56.65;101381.16;4922113;28;126329;-57
2021/10/11 07:14:01;;;;;;;;;;;;;;;5.54;56.82;101385.28;4922355;28;99084;-55
2021/10/11 07:16:27;;;;;;;;;;;;;;;5.64;56.57;101390.16;4921348;28;127919;-57
2021/10/11 07:18:53;;;;;;;;;;;;;;;5.76;56.34;101379.59;4921583;28;117408;-55
2021/10/11 07:21:19;;;;;;;;;;;;;;;5.89;56.62;101374.19;4903951;28;127308;-55
2021/10/11 07:23:45;;;;;;;;;;;;;;;6.02;56.57;101374.16;4920679;28;127518;-55
2021/10/11 07:26:11;;;;;;;;;;;;;;;6.15;56.61;101371.38;4936109;28;127316;-55
2021/10/11 07:28:37;;;;;;;;;;;;;;;6.30;56.53;101367.59;4921985;28;117476;-58
2021/10/11 07:31:03;;;;;;;;;;;;;;;6.43;55.86;101377.38;4922760;28;98725;-55
2021/10/11 07:33:29;;;;;;;;;;;;;;;6.59;55.82;101374.16;4922624;28;98601;-55
2021/10/11 07:35:55;;;;;;;;;;;;;;;6.74;56.16;101363.13;4922868;28;100055;-57
2021/10/11 07:38:21;;;;;;;;;;;;;;;6.86;56.15;101355.97;4922086;28;97883;-56
2021/10/11 07:40:48;;;;;;;;;;;;;;;6.96;56.02;101353.63;4921789;28;120703;-57
2021/10/11 07:43:13;;;;;;;;;;;;;;;7.04;56.10;101347.97;4920129;28;117999;-57
2021/10/11 07:45:39;;;;;;;;;;;;;;;7.09;56.29;101345.44;4921670;28;128428;-55
2021/10/11 07:48:05;;;;;;;;;;;;;;;7.16;56.39;101344.56;4921782;28;114659;-57
2021/10/11 07:50:31;;;;;;;;;;;;;;;7.24;56.04;101352.31;4922304;28;98867;-57
2021/10/11 07:52:57;;;;;;;;;;;;;;;7.32;56.30;101339.41;4921615;28;98540;-57
2021/10/11 07:55:23;;;;;;;;;;;;;;;7.45;56.35;101348.34;4921311;28;127198;-57
2021/10/11 07:57:49;;;;;;;;;;;;;;;7.59;56.34;101355.19;4921869;28;97914;-57
2021/10/11 08:00:20;;;;;;;;;;;;;;;7.76;56.00;101350.81;4921003;28;127339;-56
2021/10/11 08:02:46;;;;;;;;;;;;;;;7.97;56.06;101362.09;4922322;28;98386;-55
2021/10/11 08:05:14;;;;;;;;;;;;;;;8.20;55.64;101361.34;4923008;28;98036;-55
2021/10/11 08:07:41;;;;;;;;;;;;;;;8.40;55.78;101356.50;4921994;28;97762;-57
2021/10/11 08:10:08;;;;;;;;;;;;;;;8.40;56.18;101359.19;4936235;28;110492;-57
2021/10/11 08:12:34;;;;;;;;;;;;;;;8.34;56.27;101357.44;4921284;28;117424;-55
2021/10/11 08:15:00;;;;;;;;;;;;;;;8.41;56.35;101357.34;4921575;28;98291;-57
2021/10/11 08:17:26;;;;;;;;;;;;;;;8.55;56.15;101361.44;4921593;28;97966;-55
2021/10/11 08:19:52;;;;;;;;;;;;;;;8.65;56.18;101368.97;4920940;28;128122;-57
2021/10/11 08:22:20;;;;;;;;;;;;;;;8.70;55.98;101361.81;4920445;28;126940;-55
2021/10/11 08:24:46;;;;;;;;;;;;;;;8.78;56.13;101363.34;4923011;28;98464;-57
2021/10/11 08:27:16;;;;;;;;;;;;;;;8.74;56.12;101363.00;4922074;28;97829;-57
2021/10/11 08:29:51;;;;;;;;;;;;;;;8.70;56.52;101367.19;4922496;28;98815;-57
2021/10/11 08:32:17;;;;;;;;;;;;;;;8.67;56.53;101374.91;4921441;28;98360;-57
2021/10/11 08:34:43;;;;;;;;;;;;;;;8.61;56.93;101373.97;4922840;28;97953;-55
2021/10/11 08:37:09;;;;;;;;;;;;;;;8.59;56.79;101373.38;4920926;28;112206;-56
2021/10/11 08:39:36;;;;;;;;;;;;;;;8.60;57.27;101367.75;4920639;28;127985;-55
2021/10/11 08:42:04;;;;;;;;;;;;;;;8.71;56.67;101370.69;4921096;28;98537;-57
2021/10/11 08:44:30;;;;;;;;;;;;;;;8.83;56.63;101361.56;4936229;28;98208;-57
2021/10/11 08:46:56;;;;;;;;;;;;;;;9.05;56.73;101361.81;4921443;28;99014;-59
2021/10/11 08:49:22;;;;;;;;;;;;;;;9.22;55.93;101353.81;4904103;28;128159;-58
2021/10/11 08:51:48;;;;;;;;;;;;;;;9.47;55.93;101352.72;4922631;28;127043;-59
2021/10/11 08:54:14;;;;;;;;;;;;;;;10.01;54.99;101342.44;4923560;28;126577;-57
2021/10/11 08:56:39;;;;;;;;;;;;;;;10.70;53.61;101336.88;4924887;28;97963;-57
2021/10/11 08:59:05;;;;;;;;;;;;;;;11.66;52.31;101334.59;4923778;28;116700;-55
2021/10/11 09:01:32;;;;;;;;;;;;;;;13.27;49.93;101321.81;4924771;28;127859;-56
2021/10/11 09:04:03;;;;;;;;;;;;;;;14.73;48.14;101316.03;4924424;28;98403;-57
2021/10/11 09:06:29;;;;;;;;;;;;;;;15.39;47.55;101319.63;4925157;28;97851;-56
2021/10/11 09:08:54;;;;;;;;;;;;;;;15.14;48.98;101323.28;4923573;28;115923;-56
2021/10/11 09:11:20;;;;;;;;;;;;;;;14.91;49.60;101322.00;4924561;28;98074;-57
2021/10/11 09:13:51;;;;;;;;;;;;;;;16.84;46.10;101314.50;4922959;28;128401;-57
2021/10/11 09:16:34;;;;;;;;;;;;;;;17.46;45.61;101319.22;4925032;28;97660;-56
2021/10/11 09:19:15;;;;;;;;;;;;;;;17.36;46.21;101329.13;4924849;28;97914;-56
2021/10/11 09:21:41;;;;;;;;;;;;;;;18.76;44.23;101313.13;4905382;28;98246;-58
2021/10/11 09:24:10;;;;;;;;;;;;;;;19.46;43.19;101320.19;4922853;28;126819;-56
2021/10/11 09:26:44;;;;;;;;;;;;;;;19.22;44.26;101314.97;4907008;28;97753;-56
2021/10/11 09:29:10;;;;;;;;;;;;;;;18.26;45.83;101316.41;4939107;28;97919;-56
2021/10/11 09:31:40;;;;;;;;;;;;;;;17.80;46.45;101322.59;4924092;28;98040;-58
2021/10/11 09:34:06;;;;;;;;;;;;;;;17.62;46.47;101318.72;4923470;28;98274;-58
2021/10/11 09:36:32;;;;;;;;;;;;;;;17.74;46.12;101323.72;4924380;28;97801;-58
2021/10/11 09:38:58;;;;;;;;;;;;;;;17.65;46.25;101320.06;4923072;28;125742;-56
2021/10/11 09:41:24;;;;;;;;;;;;;;;17.15;46.75;101325.88;4924384;28;98568;-56
2021/10/11 09:43:51;;;;;;;;;;;;;;;16.74;47.18;101321.94;4923415;28;98008;-58
2021/10/11 09:46:19;;;;;;;;;;;;;;;16.47;47.30;101323.28;4924766;28;97876;-56
2021/10/11 09:49:03;;;;;;;;;;;;;;;16.24;47.57;101313.16;4923813;28;98934;-57
2021/10/11 09:51:28;;;;;;;;;;;;;;;16.38;47.17;101306.75;4923537;28;116155;-56
2021/10/11 09:53:55;;;;;;;;;;;;;;;16.98;46.05;101308.34;4922682;28;127378;-56
2021/10/11 09:56:25;;;;;;;;;;;;;;;17.05;45.96;101312.34;4924575;28;97781;-57
2021/10/11 09:58:52;;;;;;;;;;;;;;;16.72;46.73;101307.81;4939218;28;98769;-57
2021/10/11 10:01:17;;;;;;;;;;;;;;;17.08;46.07;101297.34;4936874;28;114362;-57
2021/10/11 10:03:44;;;;;;;;;;;;;;;16.91;46.24;101303.28;4905358;28;126986;-58
2021/10/11 10:06:09;;;;;;;;;;;;;;;17.28;45.51;101293.56;4923990;28;105108;-56
2021/10/11 10:08:37;;;;;;;;;;;;;;;17.62;45.15;101301.56;4921273;28;98808;-58
2021/10/11 10:11:03;;;;;;;;;;;;;;;17.45;45.67;101295.78;4905966;28;98388;-58
2021/10/11 10:13:35;;;;;;;;;;;;;;;16.88;46.40;101299.22;4905588;28;98297;-58
2021/10/11 10:16:09;;;;;;;;;;;;;;;16.29;47.50;101303.03;4924935;28;97754;-57
2021/10/11 10:18:41;;;;;;;;;;;;;;;15.72;48.36;101310.00;4922710;28;98833;-59
2021/10/11 10:21:08;;;;;;;;;;;;;;;15.26;48.57;101309.38;4923317;28;99155;-57
2021/10/11 10:23:38;;;;;;;;;;;;;;;14.87;49.17;101300.00;4923339;28;99179;-56
2021/10/11 10:26:05;;;;;;;;;;;;;;;14.57;49.24;101311.72;4923481;28;97731;-58
2021/10/11 10:28:46;;;;;;;;;;;;;;;14.32;49.57;101298.97;4923291;28;100239;-58
2021/10/11 10:31:31;;;;;;;;;;;;;;;14.07;50.18;101304.38;4922332;28;98554;-55
2021/10/11 10:33:57;;;;;;;;;;;;;;;13.81;50.55;101306.28;4928168;28;98418;-57
2021/10/11 10:36:25;;;;;;;;;;;;;;;13.56;50.62;101301.59;4924159;28;97762;-55
2021/10/11 10:39:07;;;;;;;;;;;;;;;13.33;51.03;101309.13;4922063;28;115914;-57
2021/10/11 10:41:34;;;;;;;;;;;;;;;13.15;51.45;101310.38;4922793;28;99464;-57
2021/10/11 10:44:18;;;;;;;;;;;;;;;12.99;51.49;101314.09;4922380;28;110954;-58
2021/10/11 10:47:00;;;;;;;;;;;;;;;12.89;51.83;101309.44;4923063;28;97853;-57
2021/10/11 10:49:30;;;;;;;;;;;;;;;12.85;51.91;101308.34;4937557;28;98863;-56
2021/10/11 10:51:56;;;;;;;;;;;;;;;12.82;52.05;101308.03;4923066;28;98461;-56
2021/10/11 10:54:35;;;;;;;;;;;;;;;12.72;52.26;101303.38;4923806;28;98512;-57
2021/10/11 10:57:01;;;;;;;;;;;;;;;12.55;52.89;101300.84;4922820;28;98234;-56
2021/10/11 10:59:27;;;;;;;;;;;;;;;12.43;53.09;101300.22;4936262;28;128673;-56
2021/10/11 11:02:09;;;;;;;;;;;;;;;12.29;53.21;101295.22;4921709;28;117415;-56
2021/10/11 11:04:35;;;;;;;;;;;;;;;12.15;53.81;101306.75;4923179;28;98422;-58
2021/10/11 11:07:07;;;;;;;;;;;;;;;12.00;54.13;101310.94;4922853;28;97622;-58
2021/10/11 11:09:45;;;;;;;;;;;;;;;11.89;54.25;101303.00;4923402;28;98425;-58
2021/10/11 11:12:14;;;;;;;;;;;;;;;11.75;54.44;101303.38;4922492;28;117796;-60
2021/10/11 11:14:46;;;;;;;;;;;;;;;11.63;55.19;101302.72;4923004;28;98110;-56
2021/10/11 11:17:15;;;;;;;;;;;;;;;11.58;54.68;101312.63;4921921;28;117011;-57
2021/10/11 11:19:42;;;;;;;;;;;;;;;11.52;55.65;101312.59;4923281;28;98337;-59
2021/10/11 11:22:10;;;;;;;;;;;;;;;11.49;55.90;101309.56;4922944;28;108079;-55
2021/10/11 11:24:35;;;;;;;;;;;;;;;11.44;55.88;101315.75;4922928;28;98261;-56
2021/10/11 11:27:02;;;;;;;;;;;;;;;11.42;55.98;101308.94;4921226;28;118332;-56
2021/10/11 11:29:30;;;;;;;;;;;;;;;11.42;55.75;101308.94;4922167;28;98979;-57
2021/10/11 11:31:56;;;;;;;;;;;;;;;11.41;56.00;101304.63;4922647;28;98761;-56
2021/10/11 11:34:22;;;;;;;;;;;;;;;11.39;55.92;101312.16;4922641;28;109323;-57
2021/10/11 11:36:49;;;;;;;;;;;;;;;11.35;56.73;101301.03;4922500;28;116277;-56
2021/10/11 11:39:15;;;;;;;;;;;;;;;11.27;56.54;101307.69;4922508;28;98683;-56
2021/10/11 11:41:52;;;;;;;;;;;;;;;11.19;57.18;101307.31;4921404;28;127931;-56
2021/10/11 11:44:25;;;;;;;;;;;;;;;11.11;57.51;101303.19;4923225;28;99594;-57
2021/10/11 11:47:06;;;;;;;;;;;;;;;11.02;57.82;101297.41;4922146;28;97860;-55
2021/10/11 11:49:36;;;;;;;;;;;;;;;10.98;57.49;101303.56;4922058;28;99044;-57
2021/10/11 11:52:06;;;;;;;;;;;;;;;10.90;57.55;101304.78;4921945;28;99288;-55
2021/10/11 11:54:32;;;;;;;;;;;;;;;10.83;57.63;101304.16;4922459;28;97986;-57
2021/10/11 11:56:58;;;;;;;;;;;;;;;10.75;58.15;101299.19;4936584;28;117446;-56
2021/10/11 11:59:24;;;;;;;;;;;;;;;10.69;58.62;101302.88;4921948;28;99155;-57
2021/10/11 12:01:50;;;;;;;;;;;;;;;10.66;58.30;101292.59;4903142;28;115686;-56
2021/10/11 12:04:16;;;;;;;;;;;;;;;10.65;58.68;101296.34;4936600;28;98208;-57
2021/10/11 12:06:43;;;;;;;;;;;;;;;10.69;58.65;101295.63;4921716;28;117531;-57
2021/10/11 12:09:09;;;;;;;;;;;;;;;10.72;59.11;101297.78;4936248;28;98551;-56
2021/10/11 12:11:36;;;;;;;;;;;;;;;10.72;58.79;101291.59;4936851;28;99266;-57
2021/10/11 12:14:02;;;;;;;;;;;;;;;10.71;59.37;101292.66;4921301;28;99315;-57
2021/10/11 12:16:29;;;;;;;;;;;;;;;10.73;58.65;101291.34;4921995;28;97928;-55
2021/10/11 12:18:56;;;;;;;;;;;;;;;10.82;59.27;101291.75;4921119;28;98079;-57
2021/10/11 12:21:38;;;;;;;;;;;;;;;10.91;59.04;101279.44;4921936;28;113975;-56
2021/10/11 12:24:13;;;;;;;;;;;;;;;11.01;58.88;101286.88;4919455;28;97871;-55
2021/10/11 12:26:55;;;;;;;;;;;;;;;11.11;59.47;101281.59;4902396;28;98042;-56
2021/10/11 12:29:21;;;;;;;;;;;;;;;11.17;58.72;101285.19;4906226;28;108107;-57
2021/10/11 12:32:00;;;;;;;;;;;;;;;11.25;59.14;101280.16;4921741;28;98561;-57
2021/10/11 12:34:30;;;;;;;;;;;;;;;11.36;58.81;101274.84;4921911;28;98329;-57
2021/10/11 12:36:56;;;;;;;;;;;;;;;11.43;59.37;101278.19;4921670;28;97930;-57
2021/10/11 12:39:36;;;;;;;;;;;;;;;11.41;59.38;101278.44;4903178;28;98234;-57